Terminal Aerodrome Forecast
Issued by NWS Sioux Falls, SD

Home | Current Version | Previous Version | Graphics & Text | Print | Product List | Glossary On
Versions: 1 2 3 4 5 6 7 8 9 10 11 12 13 14 15 16 17 18
000
FTUS43 KFSD 251127
TAFHON
TAF
KHON 251127Z 2512/2612 32020G30KT P6SM OVC030
     FM251700 33026G36KT P6SM BKN040
     FM252200 33016G25KT P6SM SCT040
     FM260100 34009KT P6SM SKC=

USA.gov is the U.S. government's official web portal to all federal, state and local government web resources and services.